Time;durP1;ratioP1;P1;durP2;ratioP2;P2;SDS_P1;SDS_P2;PMS_P1;PMS_P2;Temp;Humidity;BMP_temperature;BMP_pressure;BME280_temperature;BME280_humidity;BME280_pressure;Samples;Min_cycle;Max_cycle;Signal;HPM_P1;HPM_P2
2022/04/20 00:00:51;;;;;;;4.60;2.60;;;9.40;99.90;;;;;;5030148;28;20192;-74
2022/04/20 00:03:34;;;;;;;5.93;3.00;;;9.40;99.90;;;;;;5016493;28;20573;-73
2022/04/20 00:06:18;;;;;;;4.53;2.80;;;9.40;99.90;;;;;;5013216;28;20255;-72
2022/04/20 00:09:03;;;;;;;4.13;2.80;;;9.40;99.90;;;;;;5016123;28;20200;-73
2022/04/20 00:11:47;;;;;;;4.03;3.00;;;9.30;99.90;;;;;;5014707;28;20219;-75
2022/04/20 00:14:31;;;;;;;4.33;2.83;;;9.30;99.90;;;;;;5032128;28;20268;-74
2022/04/20 00:17:15;;;;;;;4.30;2.47;;;9.20;99.90;;;;;;5030444;28;20200;-74
2022/04/20 00:20:00;;;;;;;3.30;2.50;;;9.20;99.90;;;;;;5016292;28;20384;-74
2022/04/20 00:22:44;;;;;;;3.53;2.43;;;9.20;99.90;;;;;;5030926;28;20214;-75
2022/04/20 00:25:28;;;;;;;3.87;2.33;;;9.20;99.90;;;;;;5016182;28;20277;-73
2022/04/20 00:28:12;;;;;;;3.67;2.23;;;9.10;99.90;;;;;;5013127;28;20308;-73
2022/04/20 00:30:56;;;;;;;5.60;3.10;;;9.00;99.90;;;;;;5013805;28;20236;-73
2022/04/20 00:33:40;;;;;;;3.37;2.40;;;9.00;99.90;;;;;;5032739;28;20200;-75
2022/04/20 00:36:24;;;;;;;5.13;2.73;;;9.00;99.90;;;;;;5014948;28;20254;-73
2022/04/20 00:39:08;;;;;;;4.77;2.67;;;8.90;99.90;;;;;;5016737;28;20199;-73
2022/04/20 00:41:53;;;;;;;3.13;2.80;;;8.90;99.90;;;;;;5034038;28;20199;-73
2022/04/20 00:44:39;;;;;;;4.17;2.47;;;8.90;99.90;;;;;;5031185;28;20207;-74
2022/04/20 00:47:24;;;;;;;6.83;2.50;;;8.90;99.90;;;;;;5017469;28;20186;-74
2022/04/20 00:50:09;;;;;;;4.30;2.77;;;8.90;99.90;;;;;;5015846;28;20234;-72
2022/04/20 00:52:54;;;;;;;4.67;2.70;;;9.00;99.90;;;;;;5032830;28;20195;-75
2022/04/20 00:55:38;;;;;;;5.00;2.67;;;9.00;99.90;;;;;;5030730;28;20261;-74
2022/04/20 00:58:22;;;;;;;5.80;2.93;;;8.90;99.90;;;;;;5028702;28;20326;-77
2022/04/20 01:01:08;;;;;;;3.40;2.37;;;8.90;99.90;;;;;;5030745;28;20188;-73
2022/04/20 01:03:53;;;;;;;5.37;2.50;;;8.90;99.90;;;;;;5012488;28;20212;-75
2022/04/20 01:06:37;;;;;;;4.20;2.60;;;8.90;99.90;;;;;;5015768;28;20230;-74
2022/04/20 01:09:21;;;;;;;5.13;2.83;;;8.80;99.90;;;;;;5029047;28;20207;-71
2022/04/20 01:12:06;;;;;;;3.90;2.67;;;8.70;99.90;;;;;;5011486;28;20258;-73
2022/04/20 01:14:50;;;;;;;4.47;3.00;;;8.70;99.90;;;;;;5014363;28;20234;-74
2022/04/20 01:17:34;;;;;;;4.37;2.50;;;8.70;99.90;;;;;;5014841;28;20268;-74
2022/04/20 01:20:19;;;;;;;4.93;2.53;;;8.80;99.90;;;;;;5017784;28;20191;-74
2022/04/20 01:23:03;;;;;;;4.07;2.50;;;8.70;99.90;;;;;;5029825;28;20203;-74
2022/04/20 01:25:47;;;;;;;3.10;2.30;;;8.70;99.90;;;;;;5029917;28;20224;-73
2022/04/20 01:28:32;;;;;;;5.43;2.30;;;8.70;99.90;;;;;;5013583;28;20211;-74
2022/04/20 01:31:17;;;;;;;4.97;2.47;;;8.70;99.90;;;;;;5015758;28;20639;-73
2022/04/20 01:34:02;;;;;;;4.67;2.33;;;8.60;99.90;;;;;;5016208;28;20187;-74
2022/04/20 01:36:47;;;;;;;4.33;2.73;;;8.60;99.90;;;;;;5015954;28;20270;-73
2022/04/20 01:39:31;;;;;;;6.13;2.40;;;8.60;99.90;;;;;;5012670;28;20241;-73
2022/04/20 01:42:15;;;;;;;4.60;2.70;;;8.50;99.90;;;;;;5010527;28;20243;-74
2022/04/20 01:48:46;;;;;;;3.47;2.20;;;8.50;99.90;;;;;;5012792;28;20184;-72
2022/04/20 01:54:34;;;;;;;3.60;2.20;;;8.40;99.90;;;;;;5015694;28;20298;-75
2022/04/20 01:57:18;;;;;;;3.13;2.37;;;8.50;99.90;;;;;;5028050;28;20223;-74
2022/04/20 02:00:03;;;;;;;5.70;2.43;;;8.40;99.90;;;;;;5015587;28;20371;-75
2022/04/20 02:02:47;;;;;;;3.07;2.43;;;8.40;99.90;;;;;;5014714;28;20203;-75
2022/04/20 02:05:31;;;;;;;5.20;2.33;;;8.40;99.90;;;;;;5012926;28;20794;-73
2022/04/20 02:08:17;;;;;;;3.43;2.50;;;8.30;99.90;;;;;;5027483;28;20234;-73
2022/04/20 02:11:01;;;;;;;4.47;2.37;;;8.30;99.90;;;;;;5013099;28;20215;-73
2022/04/20 02:13:45;;;;;;;3.90;2.37;;;8.20;99.90;;;;;;5014097;28;20275;-73
2022/04/20 02:16:29;;;;;;;4.47;2.57;;;8.20;99.90;;;;;;5012483;28;20281;-73
2022/04/20 02:19:14;;;;;;;4.77;2.00;;;8.20;99.90;;;;;;5017763;28;20210;-74
2022/04/20 02:21:57;;;;;;;3.80;2.17;;;8.10;99.90;;;;;;5024171;28;20256;-72
2022/04/20 02:24:42;;;;;;;4.30;2.40;;;8.10;99.90;;;;;;5022583;28;20195;-72
2022/04/20 02:27:27;;;;;;;2.33;2.10;;;8.10;99.90;;;;;;5021854;28;20206;-72
2022/04/20 02:30:11;;;;;;;3.07;2.30;;;8.10;99.90;;;;;;5021688;28;20732;-72
2022/04/20 02:32:55;;;;;;;3.63;2.27;;;8.10;99.90;;;;;;5017798;28;20179;-74
2022/04/20 02:35:40;;;;;;;2.50;2.10;;;8.10;99.90;;;;;;5039000;28;20328;-71
2022/04/20 02:38:25;;;;;;;5.03;2.40;;;8.00;99.90;;;;;;5023735;28;20200;-73
2022/04/20 02:41:09;;;;;;;5.17;2.13;;;8.00;99.90;;;;;;5030964;28;20260;-74
2022/04/20 02:43:53;;;;;;;7.43;2.87;;;7.90;99.90;;;;;;5040183;28;20245;-73
2022/04/20 02:46:37;;;;;;;2.77;2.57;;;7.90;99.90;;;;;;5021530;28;20208;-73
2022/04/20 02:49:22;;;;;;;3.73;2.37;;;7.90;99.90;;;;;;5018834;28;20188;-71
2022/04/20 02:52:06;;;;;;;4.73;2.20;;;7.80;99.90;;;;;;5024530;28;20219;-73
2022/04/20 02:54:51;;;;;;;5.10;2.20;;;7.80;99.90;;;;;;5037159;28;20176;-74
2022/04/20 02:57:35;;;;;;;6.00;2.60;;;7.70;99.90;;;;;;5032213;28;20691;-73
2022/04/20 03:00:20;;;;;;;3.93;2.60;;;7.70;99.90;;;;;;5020805;28;20206;-73
2022/04/20 03:03:04;;;;;;;4.80;2.87;;;7.70;99.90;;;;;;5021819;28;20184;-73
2022/04/20 03:05:48;;;;;;;3.40;2.57;;;7.60;99.90;;;;;;5026590;28;20216;-73
2022/04/20 03:08:32;;;;;;;3.03;2.50;;;7.60;99.90;;;;;;5020500;28;20335;-72
2022/04/20 03:11:16;;;;;;;3.30;2.70;;;7.60;99.90;;;;;;5024621;28;20215;-74
2022/04/20 03:14:00;;;;;;;2.93;2.47;;;7.50;99.90;;;;;;5021798;28;20270;-74
2022/04/20 03:16:45;;;;;;;4.67;2.57;;;7.50;99.90;;;;;;5025096;28;20212;-74
2022/04/20 03:19:29;;;;;;;4.30;2.50;;;7.40;99.90;;;;;;5033352;28;20228;-73
2022/04/20 03:22:13;;;;;;;2.90;2.50;;;7.40;99.90;;;;;;5039011;28;20180;-73
2022/04/20 03:24:57;;;;;;;5.93;2.87;;;7.30;99.90;;;;;;5032525;28;20358;-73
2022/04/20 03:27:41;;;;;;;7.27;2.90;;;7.40;99.90;;;;;;5022128;28;20214;-73
2022/04/20 03:30:27;;;;;;;5.77;2.80;;;7.40;99.90;;;;;;5022686;28;20235;-74
2022/04/20 03:33:12;;;;;;;3.57;2.83;;;7.30;99.90;;;;;;5024581;28;20183;-72
2022/04/20 03:35:56;;;;;;;4.20;2.83;;;7.40;99.90;;;;;;5034926;28;20254;-74
2022/04/20 03:38:40;;;;;;;2.93;2.37;;;7.30;99.90;;;;;;5035889;28;20183;-73
2022/04/20 03:41:24;;;;;;;4.87;2.90;;;7.30;99.90;;;;;;5036856;28;20187;-73
2022/04/20 03:44:08;;;;;;;5.60;2.97;;;7.30;99.90;;;;;;5036579;28;20184;-74
2022/04/20 03:46:53;;;;;;;5.20;3.00;;;7.20;99.90;;;;;;5039313;28;20764;-74
2022/04/20 03:49:37;;;;;;;3.30;2.60;;;7.20;99.90;;;;;;5037463;28;20187;-73
2022/04/20 03:52:21;;;;;;;4.70;3.40;;;7.20;99.90;;;;;;5025970;28;20231;-74
2022/04/20 03:55:05;;;;;;;4.30;3.00;;;7.20;99.90;;;;;;5018476;28;20227;-74
2022/04/20 03:57:50;;;;;;;5.93;2.80;;;7.10;99.90;;;;;;5037404;28;20180;-73
2022/04/20 04:00:34;;;;;;;4.30;2.90;;;7.10;99.90;;;;;;5017839;28;20196;-73
2022/04/20 04:03:18;;;;;;;4.73;2.90;;;7.00;99.90;;;;;;5023778;28;20230;-72
2022/04/20 04:06:03;;;;;;;6.53;3.23;;;7.00;99.90;;;;;;5022021;28;20223;-74
2022/04/20 04:08:47;;;;;;;3.57;2.87;;;7.00;99.90;;;;;;5019868;28;20183;-73
2022/04/20 04:11:31;;;;;;;4.30;3.10;;;7.00;99.90;;;;;;5041176;28;20203;-72
2022/04/20 04:14:17;;;;;;;3.73;3.33;;;7.00;99.90;;;;;;5036347;28;20235;-72
2022/04/20 04:17:01;;;;;;;5.80;2.93;;;6.90;99.90;;;;;;5036834;28;20350;-73
2022/04/20 04:19:46;;;;;;;4.27;3.30;;;6.90;99.90;;;;;;5016956;28;20235;-73
2022/04/20 04:22:31;;;;;;;4.20;2.90;;;6.90;99.90;;;;;;5036798;28;20192;-72
2022/04/20 04:25:16;;;;;;;5.67;4.13;;;6.90;99.90;;;;;;5033310;28;20246;-72
2022/04/20 04:28:01;;;;;;;4.00;3.30;;;6.90;99.90;;;;;;5035601;28;20215;-73
2022/04/20 04:30:45;;;;;;;4.33;3.13;;;6.90;99.90;;;;;;5028581;28;20355;-73
2022/04/20 04:33:31;;;;;;;3.73;3.20;;;6.90;99.90;;;;;;5021479;28;20172;-74
2022/04/20 04:36:15;;;;;;;5.53;3.83;;;6.90;99.90;;;;;;5037149;28;20207;-73
2022/04/20 04:39:00;;;;;;;4.20;3.23;;;6.80;99.90;;;;;;5020294;28;20239;-74
2022/04/20 04:41:47;;;;;;;5.20;3.70;;;6.70;99.90;;;;;;5015211;28;20184;-73
2022/04/20 04:44:32;;;;;;;3.90;3.10;;;6.70;99.90;;;;;;5036142;28;20188;-75
2022/04/20 04:50:19;;;;;;;6.53;3.77;;;6.60;99.90;;;;;;5024128;28;20254;-74
2022/04/20 04:53:03;;;;;;;4.50;3.20;;;6.60;99.90;;;;;;5039879;28;20200;-73
2022/04/20 04:55:47;;;;;;;7.00;3.93;;;6.60;99.90;;;;;;5024216;28;20280;-74
2022/04/20 04:58:32;;;;;;;5.07;3.60;;;6.60;99.90;;;;;;5030737;28;20234;-73
2022/04/20 05:01:16;;;;;;;5.03;3.57;;;6.60;99.90;;;;;;5015063;28;20203;-71
2022/04/20 05:04:00;;;;;;;4.63;3.83;;;6.60;99.90;;;;;;5021341;28;20187;-70
2022/04/20 05:06:44;;;;;;;4.47;3.93;;;6.60;99.90;;;;;;5035200;28;20346;-71
2022/04/20 05:09:28;;;;;;;6.53;3.30;;;6.60;99.90;;;;;;5024425;28;20179;-69
2022/04/20 05:12:12;;;;;;;6.37;3.93;;;6.60;99.90;;;;;;5017608;28;20191;-69
2022/04/20 05:14:56;;;;;;;6.73;4.37;;;6.60;99.90;;;;;;5016691;28;20187;-70
2022/04/20 05:17:40;;;;;;;6.33;4.07;;;6.60;99.90;;;;;;5011058;28;20196;-69
2022/04/20 05:20:24;;;;;;;9.47;4.10;;;6.60;99.90;;;;;;5032714;28;20203;-71
2022/04/20 05:23:09;;;;;;;8.73;3.63;;;6.60;99.90;;;;;;5017889;28;20192;-69
2022/04/20 05:25:53;;;;;;;8.73;4.30;;;6.60;99.90;;;;;;5032279;28;20266;-70
2022/04/20 05:28:37;;;;;;;5.43;4.07;;;6.60;99.90;;;;;;5016367;28;20204;-70
2022/04/20 05:31:21;;;;;;;5.57;4.17;;;6.70;99.90;;;;;;5022322;28;20208;-70
2022/04/20 05:34:05;;;;;;;6.17;4.20;;;6.70;99.90;;;;;;5019423;28;20289;-71
2022/04/20 05:42:56;;;;;;;6.10;3.90;;;6.70;99.90;;;;;;5019360;28;20179;-70
2022/04/20 05:45:40;;;;;;;6.87;4.20;;;6.80;99.90;;;;;;5017572;28;20587;-72
2022/04/20 05:48:25;;;;;;;6.10;3.70;;;6.80;99.90;;;;;;5018551;28;20215;-72
2022/04/20 05:51:10;;;;;;;4.93;3.43;;;6.80;99.90;;;;;;5013077;28;20263;-71
2022/04/20 05:53:55;;;;;;;7.40;3.97;;;6.80;99.90;;;;;;5014524;28;20223;-70
2022/04/20 05:56:39;;;;;;;7.07;3.80;;;6.90;99.90;;;;;;5036780;28;20199;-72
2022/04/20 05:59:23;;;;;;;8.93;3.47;;;6.90;99.90;;;;;;5034266;28;20334;-71
2022/04/20 06:02:08;;;;;;;4.63;3.63;;;7.00;99.90;;;;;;5012721;28;20242;-71
2022/04/20 06:04:52;;;;;;;5.00;3.20;;;7.00;99.90;;;;;;5013949;28;20194;-71
2022/04/20 06:07:36;;;;;;;6.93;3.90;;;7.00;99.90;;;;;;5034170;28;20278;-71
2022/04/20 06:10:21;;;;;;;4.67;3.93;;;7.10;99.90;;;;;;5016741;28;20279;-71
2022/04/20 06:13:05;;;;;;;8.50;3.90;;;7.10;99.90;;;;;;5011025;28;20188;-71
2022/04/20 06:15:50;;;;;;;8.50;3.70;;;7.10;99.90;;;;;;5017006;28;20275;-71
2022/04/20 06:18:35;;;;;;;6.80;4.00;;;7.10;99.90;;;;;;5011372;28;20175;-72
2022/04/20 06:21:19;;;;;;;6.67;3.73;;;7.20;99.90;;;;;;5023398;28;20195;-71
2022/04/20 06:24:03;;;;;;;5.67;3.80;;;7.20;99.90;;;;;;5036767;28;20277;-71
2022/04/20 06:26:48;;;;;;;5.13;3.77;;;7.30;99.90;;;;;;5019538;28;20218;-70
2022/04/20 06:29:32;;;;;;;6.37;4.10;;;7.30;99.90;;;;;;5029146;28;20516;-70
2022/04/20 06:32:17;;;;;;;4.43;3.63;;;7.40;99.90;;;;;;5016366;28;20219;-71
2022/04/20 06:35:01;;;;;;;5.33;3.37;;;7.40;99.90;;;;;;5017740;28;20187;-71
2022/04/20 06:37:47;;;;;;;5.47;3.50;;;7.40;99.90;;;;;;5019094;28;20276;-70
2022/04/20 06:40:31;;;;;;;11.30;4.27;;;7.50;99.90;;;;;;5018404;28;20234;-72
2022/04/20 06:43:15;;;;;;;5.37;3.40;;;7.50;99.90;;;;;;5015911;28;20665;-72
2022/04/20 06:46:00;;;;;;;5.37;3.30;;;7.60;99.90;;;;;;5017890;28;20214;-71
2022/04/20 06:48:44;;;;;;;5.43;3.80;;;7.70;99.90;;;;;;5020512;28;20543;-71
2022/04/20 06:58:31;;;;;;;4.93;3.60;;;7.80;99.90;;;;;;5018247;28;20747;-71
2022/04/20 07:00:39;;;;;;;10.63;3.40;;;8.00;99.90;;;;;;5012920;28;20276;-71
2022/04/20 07:03:23;;;;;;;3.97;3.13;;;8.10;99.90;;;;;;5015294;28;20288;-69
2022/04/20 07:06:07;;;;;;;5.53;3.30;;;8.10;99.90;;;;;;5034335;28;20220;-69
2022/04/20 07:08:51;;;;;;;5.50;3.57;;;8.10;99.90;;;;;;5019515;28;20760;-69
2022/04/20 07:11:35;;;;;;;5.23;3.30;;;8.30;99.90;;;;;;5022269;28;20199;-69
2022/04/20 07:14:19;;;;;;;4.40;3.23;;;8.30;99.90;;;;;;5014920;28;20264;-69
2022/04/20 07:17:04;;;;;;;4.23;3.17;;;8.40;99.90;;;;;;5023232;28;20240;-70
2022/04/20 07:19:49;;;;;;;4.23;3.10;;;8.50;99.90;;;;;;5014684;28;20189;-69
2022/04/20 07:22:33;;;;;;;6.27;2.80;;;8.50;99.90;;;;;;5031646;28;20583;-68
2022/04/20 07:25:18;;;;;;;4.63;3.53;;;8.50;99.90;;;;;;5021509;28;20235;-69
2022/04/20 07:28:06;;;;;;;5.33;3.27;;;8.70;99.90;;;;;;5039190;28;20253;-69
2022/04/20 07:30:50;;;;;;;5.50;3.27;;;8.70;99.90;;;;;;5030462;28;20223;-69
2022/04/20 07:33:34;;;;;;;4.87;3.00;;;8.70;99.90;;;;;;5030558;28;20296;-69
2022/04/20 07:36:21;;;;;;;5.80;3.30;;;8.80;99.90;;;;;;5033389;28;20246;-69
2022/04/20 07:39:05;;;;;;;8.73;3.00;;;8.80;99.90;;;;;;5034540;28;20231;-69
2022/04/20 07:41:49;;;;;;;4.17;3.03;;;8.90;99.90;;;;;;5023788;28;20694;-69
2022/04/20 07:44:33;;;;;;;4.13;3.13;;;9.00;99.90;;;;;;5034934;28;20191;-68
2022/04/20 07:47:17;;;;;;;5.70;2.73;;;9.10;99.90;;;;;;5035522;28;20203;-69
2022/04/20 07:50:23;;;;;;;3.30;2.80;;;9.10;99.90;;;;;;5031359;28;20191;-69
2022/04/20 07:53:07;;;;;;;6.90;2.53;;;9.20;99.90;;;;;;5023268;28;20227;-69
2022/04/20 07:55:51;;;;;;;6.87;2.80;;;9.20;99.90;;;;;;5032561;28;20219;-68
2022/04/20 07:58:35;;;;;;;4.33;2.67;;;9.40;99.90;;;;;;5011479;28;20667;-68
2022/04/20 08:01:20;;;;;;;3.93;2.80;;;9.40;99.90;;;;;;5013209;28;20207;-68
2022/04/20 08:04:05;;;;;;;5.07;3.07;;;9.50;99.90;;;;;;5011393;28;20307;-68
2022/04/20 08:06:49;;;;;;;4.27;2.63;;;9.50;99.90;;;;;;5026645;28;20223;-68
2022/04/20 08:09:33;;;;;;;3.90;2.57;;;9.60;99.90;;;;;;5017210;28;20210;-68
2022/04/20 08:12:17;;;;;;;3.50;2.33;;;9.60;99.90;;;;;;5014322;28;20206;-69
2022/04/20 08:15:02;;;;;;;2.37;2.10;;;9.70;99.90;;;;;;5015885;28;20187;-68
2022/04/20 08:17:46;;;;;;;4.83;2.43;;;9.80;99.90;;;;;;5007975;28;20200;-68
2022/04/20 08:20:30;;;;;;;4.20;2.43;;;9.80;99.90;;;;;;5012734;28;20241;-69
2022/04/20 08:23:15;;;;;;;3.73;2.40;;;9.90;99.90;;;;;;5028449;28;20282;-68
2022/04/20 08:26:00;;;;;;;3.10;1.90;;;10.00;99.90;;;;;;5015156;28;20744;-69
2022/04/20 08:28:44;;;;;;;2.17;1.90;;;10.10;99.90;;;;;;5014438;28;20225;-68
2022/04/20 08:31:29;;;;;;;2.67;2.23;;;10.10;99.90;;;;;;5015444;28;20226;-68
2022/04/20 08:34:13;;;;;;;4.03;2.07;;;10.20;99.90;;;;;;5015205;28;20718;-72
2022/04/20 08:36:58;;;;;;;2.30;2.10;;;10.30;99.90;;;;;;5012073;28;20219;-69
2022/04/20 08:39:43;;;;;;;3.90;2.30;;;10.30;99.90;;;;;;5030706;28;20238;-69
2022/04/20 08:42:30;;;;;;;3.60;2.63;;;10.40;99.90;;;;;;5013726;28;20226;-69
2022/04/20 08:45:15;;;;;;;1.97;1.77;;;10.50;99.90;;;;;;5013036;28;20266;-68
2022/04/20 08:47:59;;;;;;;5.20;2.30;;;10.60;99.90;;;;;;5015151;28;20647;-69
2022/04/20 08:50:44;;;;;;;2.60;1.60;;;10.60;99.90;;;;;;5015327;28;20224;-69
2022/04/20 08:53:29;;;;;;;1.80;1.60;;;10.60;99.90;;;;;;5024906;28;20265;-69
2022/04/20 08:59:16;;;;;;;3.47;2.53;;;10.70;99.90;;;;;;5012487;28;20195;-69
2022/04/20 09:02:02;;;;;;;3.47;2.40;;;10.80;99.90;;;;;;5012438;28;20191;-69
2022/04/20 09:04:47;;;;;;;4.47;2.17;;;10.80;99.90;;;;;;5011322;28;20187;-68
2022/04/20 09:07:31;;;;;;;3.03;2.00;;;10.90;99.90;;;;;;5027579;28;20222;-71
2022/04/20 09:10:16;;;;;;;3.07;2.60;;;11.00;99.90;;;;;;5014387;28;20216;-68
2022/04/20 09:13:07;;;;;;;6.63;2.40;;;11.10;99.90;;;;;;5008864;28;20192;-68
2022/04/20 09:15:54;;;;;;;4.33;2.20;;;11.20;99.90;;;;;;5029253;28;20309;-68
2022/04/20 09:18:41;;;;;;;3.00;2.40;;;11.30;99.90;;;;;;5012298;28;20208;-68
2022/04/20 09:21:31;;;;;;;3.80;2.30;;;11.20;99.90;;;;;;5027372;28;20275;-68
2022/04/20 09:24:16;;;;;;;3.37;2.27;;;11.30;99.90;;;;;;5013379;28;20266;-68
2022/04/20 09:27:00;;;;;;;6.10;2.83;;;11.30;99.90;;;;;;5015332;28;20354;-68
2022/04/20 09:29:54;;;;;;;3.80;2.53;;;11.30;99.90;;;;;;5012747;28;20265;-69
2022/04/20 09:32:40;;;;;;;2.93;2.60;;;11.40;99.90;;;;;;5013668;28;20245;-68
2022/04/20 09:35:24;;;;;;;3.13;2.50;;;11.50;99.90;;;;;;5012746;28;20207;-68
2022/04/20 09:38:10;;;;;;;4.20;2.70;;;11.50;99.90;;;;;;5012907;28;20252;-68
2022/04/20 09:41:05;;;;;;;2.97;2.67;;;11.60;99.90;;;;;;5013718;28;20284;-68
2022/04/20 09:44:06;;;;;;;3.30;2.50;;;11.60;99.90;;;;;;5025574;28;20215;-68
2022/04/20 09:49:57;;;;;;;4.97;2.83;;;11.70;99.90;;;;;;5010830;28;20274;-68
2022/04/20 09:52:44;;;;;;;4.60;3.13;;;11.70;99.90;;;;;;5027705;28;20207;-68
2022/04/20 09:55:34;;;;;;;7.50;3.30;;;11.70;99.90;;;;;;5012128;28;20231;-68
2022/04/20 09:58:19;;;;;;;4.87;2.90;;;11.70;99.90;;;;;;5012388;28;20328;-68
2022/04/20 10:01:06;;;;;;;3.13;2.70;;;11.80;99.90;;;;;;5011773;28;20194;-68
2022/04/20 10:03:54;;;;;;;3.57;2.50;;;12.00;99.90;;;;;;5012956;28;20192;-69
2022/04/20 10:06:42;;;;;;;5.37;2.70;;;12.00;99.90;;;;;;5011536;28;20228;-69
2022/04/20 10:09:26;;;;;;;3.00;2.70;;;12.10;99.90;;;;;;5011938;28;20195;-68
2022/04/20 10:12:13;;;;;;;6.10;2.77;;;12.20;99.90;;;;;;5012961;28;20238;-69
2022/04/20 10:18:05;;;;;;;3.30;2.60;;;12.20;99.90;;;;;;5014628;28;20249;-68
2022/04/20 10:20:54;;;;;;;2.80;2.60;;;12.30;99.90;;;;;;5011250;28;20195;-69
2022/04/20 10:23:49;;;;;;;2.90;2.60;;;12.30;99.90;;;;;;5012103;28;20191;-68
2022/04/20 10:26:34;;;;;;;3.40;2.53;;;12.30;99.90;;;;;;5014058;28;20212;-68
2022/04/20 10:29:40;;;;;;;3.37;2.73;;;12.30;99.90;;;;;;5013431;28;20195;-68
2022/04/20 10:32:26;;;;;;;6.30;2.50;;;12.40;99.90;;;;;;5009200;28;20695;-68
2022/04/20 10:35:11;;;;;;;3.13;2.60;;;12.40;99.90;;;;;;5007903;28;20788;-68
2022/04/20 10:38:09;;;;;;;3.60;3.00;;;12.50;99.90;;;;;;5021029;28;20188;-69
2022/04/20 10:41:17;;;;;;;5.53;2.80;;;12.60;99.90;;;;;;5014110;28;20539;-68
2022/04/20 10:44:05;;;;;;;3.10;2.80;;;12.60;99.90;;;;;;5014975;28;20234;-68
2022/04/20 10:47:04;;;;;;;5.00;3.50;;;12.60;99.90;;;;;;5018182;28;20243;-71
2022/04/20 10:49:50;;;;;;;3.80;3.17;;;12.60;99.90;;;;;;5015068;28;20195;-72
2022/04/20 10:52:39;;;;;;;5.27;3.50;;;12.70;99.90;;;;;;5013811;28;20219;-72
2022/04/20 10:55:30;;;;;;;3.90;3.50;;;12.80;99.90;;;;;;5014643;28;20232;-71
2022/04/20 10:58:21;;;;;;;7.00;3.37;;;12.80;99.90;;;;;;5016056;28;20204;-71
2022/04/20 11:01:10;;;;;;;4.20;3.13;;;12.90;99.90;;;;;;5016594;28;20253;-72
2022/04/20 11:03:57;;;;;;;5.70;3.30;;;12.90;99.90;;;;;;5029016;28;20188;-71
2022/04/20 11:07:00;;;;;;;5.57;3.47;;;13.00;99.90;;;;;;5027642;28;20219;-71
2022/04/20 11:09:45;;;;;;;5.67;3.83;;;13.10;99.90;;;;;;5016726;28;20235;-72
2022/04/20 11:18:45;;;;;;;5.70;3.77;;;13.20;99.90;;;;;;5012708;28;20235;-72
2022/04/20 11:21:30;;;;;;;3.50;3.07;;;13.30;99.90;;;;;;5015260;28;20191;-72
2022/04/20 11:24:27;;;;;;;5.77;2.93;;;13.40;99.90;;;;;;5032535;28;20207;-72
2022/04/20 11:27:12;;;;;;;4.90;2.80;;;13.40;99.90;;;;;;5016044;28;20257;-71
2022/04/20 11:29:56;;;;;;;3.87;2.87;;;13.50;99.90;;;;;;5018449;28;20225;-72
2022/04/20 11:32:40;;;;;;;4.73;2.30;;;13.60;99.90;;;;;;5018592;28;20195;-72
2022/04/20 11:35:24;;;;;;;5.13;3.13;;;13.70;99.90;;;;;;5017666;28;20219;-71
2022/04/20 11:38:10;;;;;;;7.07;3.63;;;13.80;99.90;;;;;;5012240;28;20192;-72
2022/04/20 11:40:55;;;;;;;6.20;3.43;;;13.80;99.90;;;;;;5015877;28;20192;-71
2022/04/20 11:43:40;;;;;;;5.77;2.83;;;13.80;99.90;;;;;;5012899;28;20909;-71
2022/04/20 11:46:25;;;;;;;4.67;2.60;;;13.80;99.90;;;;;;5010575;28;20226;-72
2022/04/20 11:49:10;;;;;;;4.47;2.70;;;13.80;99.90;;;;;;5021682;28;20371;-72
2022/04/20 11:51:58;;;;;;;8.63;3.07;;;14.00;99.90;;;;;;5016528;28;20220;-72
2022/04/20 11:54:46;;;;;;;3.47;2.77;;;14.00;99.90;;;;;;5017908;28;20728;-72
2022/04/20 11:57:30;;;;;;;2.90;2.50;;;14.00;99.90;;;;;;5017143;28;20706;-72
2022/04/20 12:00:15;;;;;;;5.93;2.40;;;13.90;99.90;;;;;;5029055;28;20245;-71
2022/04/20 12:02:59;;;;;;;3.17;2.43;;;14.00;99.90;;;;;;5014087;28;20184;-72
2022/04/20 12:05:44;;;;;;;4.60;3.00;;;14.10;99.90;;;;;;5017272;28;20224;-72
2022/04/20 12:08:30;;;;;;;3.00;2.37;;;14.20;99.90;;;;;;5015187;28;20264;-72
2022/04/20 12:11:16;;;;;;;3.53;2.93;;;14.20;99.90;;;;;;5015151;28;20228;-71
2022/04/20 12:14:00;;;;;;;4.17;2.80;;;14.20;99.90;;;;;;5031142;28;20203;-72
2022/04/20 12:16:45;;;;;;;3.93;2.83;;;14.30;99.90;;;;;;5013871;28;20219;-72
2022/04/20 12:19:30;;;;;;;3.73;2.63;;;14.40;99.90;;;;;;5013962;28;20532;-72
2022/04/20 12:22:17;;;;;;;4.23;3.00;;;14.40;99.90;;;;;;5014861;28;20292;-72
2022/04/20 12:25:10;;;;;;;4.90;2.57;;;14.50;99.90;;;;;;5014237;28;20196;-72
2022/04/20 12:27:56;;;;;;;3.57;2.83;;;14.50;99.90;;;;;;5012944;28;20204;-73
2022/04/20 12:30:44;;;;;;;4.30;3.00;;;14.50;99.90;;;;;;5014274;28;20229;-72
2022/04/20 12:33:30;;;;;;;4.97;3.37;;;14.60;99.90;;;;;;5012861;28;20187;-72
2022/04/20 12:36:14;;;;;;;4.83;2.70;;;14.60;99.90;;;;;;5013081;28;20219;-72
2022/04/20 12:38:59;;;;;;;6.20;2.53;;;14.60;99.90;;;;;;5010701;28;20682;-72
2022/04/20 12:41:47;;;;;;;2.90;2.63;;;14.60;99.90;;;;;;5013277;28;20223;-72
2022/04/20 12:44:40;;;;;;;4.73;2.70;;;14.80;99.90;;;;;;5012494;28;20188;-72
2022/04/20 12:47:27;;;;;;;5.53;2.60;;;14.80;99.90;;;;;;5015557;28;20207;-72
2022/04/20 12:50:11;;;;;;;5.30;2.90;;;14.80;99.90;;;;;;5016871;28;20277;-72
2022/04/20 12:52:57;;;;;;;4.90;3.00;;;14.80;99.90;;;;;;5026622;28;20215;-72
2022/04/20 13:02:01;;;;;;;5.17;2.80;;;14.70;99.90;;;;;;5015230;28;20223;-72
2022/04/20 13:02:04;;;;;;;3.70;2.50;;;14.80;99.90;;;;;;5017793;28;20246;-73
2022/04/20 13:04:49;;;;;;;4.50;2.63;;;14.90;99.90;;;;;;5013582;28;20190;-72
2022/04/20 13:07:34;;;;;;;3.07;2.50;;;14.90;99.90;;;;;;5029129;28;20207;-72
2022/04/20 13:10:18;;;;;;;3.53;2.30;;;15.00;99.90;;;;;;5015670;28;20188;-72
2022/04/20 13:13:04;;;;;;;4.23;2.70;;;15.10;99.90;;;;;;5015211;28;20216;-72
2022/04/20 13:15:48;;;;;;;2.60;2.40;;;15.20;99.90;;;;;;5015074;28;20220;-72
2022/04/20 13:18:32;;;;;;;3.17;2.57;;;15.20;99.90;;;;;;5024500;28;20191;-73
2022/04/20 13:21:17;;;;;;;7.53;2.60;;;15.20;99.90;;;;;;5027674;28;20224;-73
2022/04/20 13:24:02;;;;;;;6.13;2.43;;;15.10;99.90;;;;;;5011908;28;20184;-73
2022/04/20 13:29:49;;;;;;;3.67;2.23;;;15.20;99.90;;;;;;5015414;28;20248;-72
2022/04/20 13:32:33;;;;;;;3.37;2.40;;;15.20;99.90;;;;;;5008873;28;20198;-73
2022/04/20 13:35:17;;;;;;;3.00;2.70;;;15.30;99.90;;;;;;5026251;28;20219;-72
2022/04/20 13:38:02;;;;;;;4.13;2.53;;;15.30;99.90;;;;;;5012853;28;20188;-72
2022/04/20 13:40:47;;;;;;;2.57;2.33;;;15.30;99.90;;;;;;5028660;28;20590;-72
2022/04/20 13:43:31;;;;;;;2.97;2.60;;;15.30;99.90;;;;;;5012020;28;20335;-73
2022/04/20 13:46:16;;;;;;;5.77;2.13;;;15.30;99.90;;;;;;5010466;28;20224;-72
2022/04/20 13:49:00;;;;;;;3.40;2.17;;;15.40;99.90;;;;;;5011440;28;20219;-72
2022/04/20 13:51:44;;;;;;;9.60;3.90;;;15.50;99.90;;;;;;5007312;28;20699;-72
2022/04/20 13:54:29;;;;;;;2.57;2.37;;;15.50;99.90;;;;;;5016735;28;20184;-73
2022/04/20 13:57:14;;;;;;;2.80;2.10;;;15.60;99.90;;;;;;5013267;28;20226;-72
2022/04/20 13:59:59;;;;;;;6.23;2.17;;;15.60;99.90;;;;;;5010769;28;20227;-72
2022/04/20 14:02:43;;;;;;;3.77;2.20;;;15.50;99.90;;;;;;5010915;28;20231;-72
2022/04/20 14:05:28;;;;;;;2.43;1.80;;;15.50;99.90;;;;;;5012917;28;20335;-73
2022/04/20 14:08:12;;;;;;;3.07;1.83;;;15.60;99.90;;;;;;5015250;28;20188;-72
2022/04/20 14:10:56;;;;;;;2.40;1.80;;;15.70;99.90;;;;;;5012536;28;20243;-72
2022/04/20 14:13:41;;;;;;;3.40;1.80;;;15.80;99.90;;;;;;5013733;28;20192;-72
2022/04/20 14:16:27;;;;;;;2.87;1.90;;;15.80;99.90;;;;;;5015585;28;20207;-74
2022/04/20 14:19:12;;;;;;;3.10;1.70;;;15.70;99.90;;;;;;5011749;28;20235;-73
2022/04/20 14:21:57;;;;;;;3.77;2.00;;;15.70;99.90;;;;;;5012652;28;20614;-73
2022/04/20 14:24:42;;;;;;;2.53;1.73;;;15.70;99.90;;;;;;5008139;28;20262;-73
2022/04/20 14:33:33;;;;;;;2.70;1.60;;;15.60;99.90;;;;;;5013127;28;20192;-73
2022/04/20 14:36:17;;;;;;;3.60;1.73;;;15.60;99.90;;;;;;5012199;28;20211;-73
2022/04/20 14:39:03;;;;;;;3.43;1.93;;;15.60;99.90;;;;;;5012545;28;20215;-73
2022/04/20 14:41:47;;;;;;;1.93;1.70;;;15.60;99.90;;;;;;5015442;28;20231;-74
2022/04/20 14:44:34;;;;;;;4.80;1.57;;;15.70;99.90;;;;;;5026775;28;20215;-73
2022/04/20 14:47:18;;;;;;;6.23;1.80;;;15.80;99.90;;;;;;5027848;28;20725;-73
2022/04/20 14:50:02;;;;;;;2.00;1.50;;;15.90;99.90;;;;;;5010877;28;20553;-73
2022/04/20 14:52:47;;;;;;;2.30;1.70;;;15.90;99.90;;;;;;5012068;28;20340;-73
2022/04/20 14:55:31;;;;;;;2.87;2.20;;;16.00;99.90;;;;;;5012303;28;20230;-74
2022/04/20 14:58:16;;;;;;;1.70;1.60;;;16.00;99.90;;;;;;5027304;28;20219;-73
2022/04/20 15:01:00;;;;;;;2.67;1.40;;;16.00;99.90;;;;;;5025767;28;20263;-73
2022/04/20 15:03:44;;;;;;;4.90;1.60;;;16.00;99.90;;;;;;5010491;28;20203;-73
2022/04/20 15:06:33;;;;;;;2.00;1.67;;;15.90;99.90;;;;;;5007597;28;20258;-73
2022/04/20 15:09:17;;;;;;;2.17;1.70;;;16.00;99.90;;;;;;5020286;28;20266;-73
2022/04/20 15:12:03;;;;;;;1.90;1.60;;;16.00;99.90;;;;;;5010942;28;20244;-73
2022/04/20 15:14:47;;;;;;;1.83;1.47;;;16.10;99.90;;;;;;5026297;28;20183;-73
2022/04/20 15:17:33;;;;;;;1.80;1.60;;;16.20;99.90;;;;;;5014099;28;20185;-73